Terminal Aerodrome Forecast
Issued by NWS

Home | Current Version | Previous Version | Text Only | Print | Product List | Glossary On
Versions: 1 2 3 4 5 6 7 8 9 10 11 12 13 14
000
FTUS42 KGSP 301130
TAFAND
TAF
KAND 301130Z 3012/3112 06003KT P6SM OVC090
     FM301600 13007KT P6SM BKN100
     FM302100 06006KT P6SM VCSH OVC060
     FM310400 07003KT 6SM -RA BR BKN025
     FM310700 07003KT P6SM BKN008
     FM311000 08004KT 5SM BR BKN003=

USA.gov is the U.S. government's official web portal to all federal, state and local government web resources and services.